Terminal Aerodrome Forecast
Issued by NWS

Home | Current Version | Previous Version | Text Only | Print | Product List | Glossary Off
Versions: 1 2 3 4 5 6 7 8 9 10 11 12 13 14 15

603
FTUS43 KOAX 121121
TAFCDR
TAF
KCDR 121121Z 1212/1312 VRB03KT P6SM OVC007
     FM121400 VRB03KT 1SM BR OVC005
     FM121800 08004KT 6SM BR SCT007 BKN020
     FM130300 15011KT P6SM SCT010=

USA.gov is the U.S. government's official web portal to all federal, state and local government web resources and services.